KPOU/POU METAR and TAF weather

Enter ICAO airport designator
Station Type Date Time Source
KPOU METAR 2020/09/26 09:53 UTC NOAA

KPOU 260953Z 00000KT 8SM OVC006 13/11 A3010 RMK AO2 SLP189 T01280111


Station Type Date Time Source
KPOU Decoded METAR 2020/09/26 09:53 UTC NOAA

POUGHKEEPSIE DUTCHESS CTY, NY, United States (KPOU) 41-38N 073-53W 46M
Sep 26, 2020 - 05:53 AM EDT / 2020.09.26 0953 UTC
Wind: Calm:0
Visibility: 8 mile(s):0
Sky conditions: overcast
Temperature: 55.0 F (12.8 C)
Dew Point: 52.0 F (11.1 C)
Relative Humidity: 89%
Pressure (altimeter): 30.1 in. Hg (1019 hPa)
ob: KPOU 260953Z 00000KT 8SM OVC006 13/11 A3010 RMK AO2 SLP189 T01280111
cycle: 10

Station Type Date Time Source
KPOU TAF 2020/09/26 10:36 UTC NOAA

TAF
AMD KPOU 260933Z 2610/2706 00000KT 5SM BR SCT006
TEMPO 2610/2613 1/2SM FG VV002
FM261300 VRB03KT 2SM BR BKN006
FM261430 19004KT 6SM BR BKN012
FM261700 17006KT P6SM SCT035 BKN050
FM270200 VRB03KT P6SM BKN020

Example: see airport list